METAR Data
IDs: Format: Raw Decoded Include TAF

Data at: 1351 UTC 07 Jul 2020

KMLF 071321Z AUTO 19010KT 10SM CLR 19/M10 A3000 RMK AO2 WSHFT 1307 T01941100
KMLF 071312Z AUTO 20010KT 10SM CLR 19/M10 A3000 RMK AO2 WSHFT 1258 T01941100
KMLF 071310Z AUTO 20011KT 10SM CLR 19/M10 A3000 RMK AO2 WSHFT 1256 T01891100
KMLF 071308Z AUTO 20011KT 10SM CLR 19/M10 A3000 RMK AO2 WSHFT 1254 T01891100
KMLF 071306Z AUTO 20011KT 10SM CLR 19/M10 A3000 RMK AO2 WSHFT 1252 T01891100
KMLF 071252Z AUTO 20011KT 10SM CLR 18/M10 A3000 RMK AO2 WSHFT 1228 SLP081 T01781100
KMLF 071242Z AUTO 20010KT 10SM CLR 17/M11 A3000 RMK AO2 WSHFT 1228 T01721106
KMLF 071240Z AUTO 20010KT 10SM CLR 17/M10 A3000 RMK AO2 WSHFT 1226 T01721100
KMLF 071238Z AUTO 20011KT 10SM CLR 17/M11 A2999 RMK AO2 WSHFT 1224 T01721106
KMLF 071236Z AUTO 20011KT 10SM CLR 17/M11 A2999 RMK AO2 WSHFT 1222 T01671106
KMLF 071227Z AUTO 20011KT 10SM CLR 16/M10 A2999 RMK AO2 WSHFT 1213 T01611100
KMLF 071225Z AUTO 20012KT 10SM CLR 16/M10 A2999 RMK AO2 WSHFT 1211 T01561100
KMLF 071223Z AUTO 20012KT 10SM CLR 16/M10 A2999 RMK AO2 WSHFT 1209 T01561100
KMLF 071221Z AUTO 20012KT 10SM CLR 15/M10 A2999 RMK AO2 WSHFT 1207 T01501100
KMLF 071212Z AUTO 21012KT 10SM CLR 15/M09 A2999 RMK AO2 WSHFT 1158 T01501094
KMLF 071210Z AUTO 21011KT 10SM CLR 15/M10 A2999 RMK AO2 WSHFT 1156 T01501100
KMLF 071208Z AUTO 20010KT 10SM CLR 15/M10 A2999 RMK AO2 WSHFT 1154 T01501100
KMLF 071206Z AUTO 20011KT 10SM CLR 15/M09 A2999 RMK AO2 WSHFT 1152 T01501094
KMLF 071201Z AUTO 20011KT 10SM CLR 15/M09 A2999 RMK AO2 WSHFT 1143 T01501094
KMLF 071152Z AUTO 20011KT 10SM CLR 15/M09 A2999 RMK AO2 WSHFT 1126 SLP079 T01501094 10222 20150 53003
KMLF 071140Z AUTO 20010KT 10SM CLR 17/M09 A2999 RMK AO2 WSHFT 1126 T01671094
KMLF 071112Z AUTO 19012KT 10SM CLR 17/M09 A2998 RMK AO2 WSHFT 1058 T01671089
KMLF 071052Z AUTO 19010KT 10SM CLR 16/M08 A2998 RMK AO2 WSHFT 1028 SLP077 T01561083
KMLF 071042Z AUTO 20011KT 10SM CLR 16/M08 A2998 RMK AO2 WSHFT 1028 T01611083
KMLF 071040Z AUTO 19011KT 10SM CLR 16/M09 A2998 RMK AO2 WSHFT 1026 T01611089
KMLF 071038Z AUTO 19011KT 10SM CLR 17/M09 A2998 RMK AO2 WSHFT 1024 T01671089
KMLF 071036Z AUTO 19011KT 10SM CLR 17/M09 A2998 RMK AO2 WSHFT 1022 T01721089
KMLF 071027Z AUTO 20011KT 10SM CLR 19/M10 A2998 RMK AO2 WSHFT 1013 T01891100
KMLF 071025Z AUTO 20011KT 10SM CLR 19/M11 A2998 RMK AO2 WSHFT 1011 T01941106
KMLF 071023Z AUTO 20011KT 10SM CLR 19/M11 A2998 RMK AO2 WSHFT 1009 T01941106
KMLF 071021Z AUTO 20011KT 10SM CLR 20/M11 A2998 RMK AO2 WSHFT 1007 T02001111
KMLF 071012Z AUTO 19013KT 10SM CLR 21/M11 A2998 RMK AO2 WSHFT 0958 T02061111
KMLF 071010Z AUTO 19013KT 10SM CLR 21/M11 A2998 RMK AO2 WSHFT 0956 T02061106
KMLF 071008Z AUTO 19011KT 10SM CLR 20/M11 A2998 RMK AO2 WSHFT 0954 T02001106
KMLF 071006Z AUTO 19011KT 10SM CLR 20/M11 A2998 RMK AO2 WSHFT 0952 T02001106
KMLF 071001Z AUTO 19011KT 10SM CLR 20/M11 A2998 RMK AO2 WSHFT 0943 T02001106
KMLF 070956Z AUTO 19012KT 10SM CLR 20/M10 A2998 RMK AO2 WSHFT 0942 T02001100
KMLF 070954Z AUTO 19011KT 10SM CLR 20/M10 A2998 RMK AO2 WSHFT 0940 T02001100
KMLF 070952Z AUTO 19012KT 10SM CLR 20/M10 A2998 RMK AO2 WSHFT 0938 SLP068 T02001100
KMLF 070942Z AUTO 19010KT 10SM CLR 20/M10 A2998 RMK AO2 WSHFT 0928 T02001100
KMLF 070940Z AUTO 19010KT 10SM CLR 20/M09 A2998 RMK AO2 WSHFT 0926 T02001094
KMLF 070938Z AUTO 19010KT 10SM CLR 20/M09 A2997 RMK AO2 WSHFT 0924 T02001094
KMLF 070936Z AUTO 19010KT 10SM CLR 20/M09 A2998 RMK AO2 WSHFT 0922 T02001094
KMLF 070927Z AUTO 18011KT 10SM CLR 19/M09 A2998 RMK AO2 WSHFT 0913 T01941094
KMLF 070925Z AUTO 18010KT 10SM CLR 20/M09 A2998 RMK AO2 WSHFT 0911 T02001094
KMLF 070923Z AUTO 18010KT 10SM CLR 20/M09 A2998 RMK AO2 WSHFT 0909 T02001094
KMLF 070921Z AUTO 18011KT 10SM CLR 20/M09 A2998 RMK AO2 WSHFT 0907 T02001094
KMLF 070912Z AUTO 18011KT 10SM CLR 21/M09 A2998 RMK AO2 WSHFT 0858 T02061094
KMLF 070910Z AUTO 18010KT 10SM CLR 21/M09 A2998 RMK AO2 WSHFT 0856 T02061094
KMLF 070908Z AUTO 18011KT 10SM CLR 21/M09 A2998 RMK AO2 WSHFT 0854 T02111094
KMLF 070906Z AUTO 18011KT 10SM CLR 21/M09 A2998 RMK AO2 WSHFT 0852 T02111094
KMLF 070901Z AUTO 18012KT 10SM CLR 21/M09 A2998 RMK AO2 WSHFT 0843 T02111094
KMLF 070856Z AUTO 19013KT 10SM CLR 22/M09 A2998 RMK AO2 WSHFT 0842 T02171094
KMLF 070854Z AUTO 19013KT 10SM CLR 22/M09 A2998 RMK AO2 WSHFT 0840 T02171094
KMLF 070852Z AUTO 19013KT 10SM CLR 21/M09 A2998 RMK AO2 WSHFT 0838 SLP068 T02111094 58004
KMLF 070842Z AUTO 18012KT 10SM CLR 21/M09 A2998 RMK AO2 WSHFT 0828 T02111089
KMLF 070840Z AUTO 18012KT 10SM CLR 21/M09 A2998 RMK AO2 WSHFT 0826 T02061089
KMLF 070838Z AUTO 18012KT 10SM CLR 21/M09 A2998 RMK AO2 WSHFT 0824 T02061089
KMLF 070836Z AUTO 18012KT 10SM CLR 20/M09 A2998 RMK AO2 WSHFT 0822 T02001089
KMLF 070827Z AUTO 19012KT 10SM CLR 18/M07 A2998 RMK AO2 WSHFT 0813 T01781072
KMLF 070825Z AUTO 19012KT 10SM CLR 18/M07 A2998 RMK AO2 WSHFT 0811 T01781072
KMLF 070823Z AUTO 19012KT 10SM CLR 18/M07 A2998 RMK AO2 WSHFT 0809 T01781072
KMLF 070821Z AUTO 20012KT 10SM CLR 18/M07 A2998 RMK AO2 WSHFT 0807 T01781072
KMLF 070812Z AUTO 20012KT 10SM CLR 18/M07 A2999 RMK AO2 WSHFT 0758 T01831072
KMLF 070810Z AUTO 20013KT 10SM CLR 18/M07 A2999 RMK AO2 WSHFT 0756 T01831072
KMLF 070808Z AUTO 20013KT 10SM CLR 18/M07 A2999 RMK AO2 WSHFT 0754 T01831072
KMLF 070806Z AUTO 20014KT 10SM CLR 19/M08 A2999 RMK AO2 WSHFT 0752 T01891078
KMLF 070801Z AUTO 19013KT 10SM CLR 19/M07 A2999 RMK AO2 WSHFT 0743 T01891072
KMLF 070756Z AUTO 19013KT 10SM CLR 19/M07 A2999 RMK AO2 WSHFT 0742 T01891072
KMLF 070754Z AUTO 19013KT 10SM CLR 19/M08 A2999 RMK AO2 WSHFT 0740 T01891078
KMLF 070752Z AUTO 20012KT 10SM CLR 19/M08 A2999 RMK AO2 WSHFT 0738 SLP074 T01891078
KMLF 070710Z AUTO 19010KT 10SM CLR 19/M07 A2999 RMK AO2 WSHFT 0656 T01941072
KMLF 070708Z AUTO 19010KT 10SM CLR 20/M07 A2999 RMK AO2 WSHFT 0654 T02001072
KMLF 070706Z AUTO 20010KT 10SM CLR 20/M07 A2999 RMK AO2 WSHFT 0652 T02001072
KMLF 070701Z AUTO 20010KT 10SM CLR 20/M07 A3000 RMK AO2 WSHFT 0643 T02001072
KMLF 070656Z AUTO 20010KT 10SM CLR 21/M07 A3000 RMK AO2 WSHFT 0642 T02061072
KMLF 070654Z AUTO 20011KT 10SM CLR 21/M07 A3000 RMK AO2 WSHFT 0640 T02061072
KMLF 070652Z AUTO 20010KT 10SM CLR 21/M07 A3000 RMK AO2 WSHFT 0638 SLP076 T02061072 403720122
KMLF 070642Z AUTO 19013KT 10SM CLR 22/M07 A2999 RMK AO2 WSHFT 0628 T02171067
KMLF 070640Z AUTO 19013KT 10SM CLR 22/M07 A3000 RMK AO2 WSHFT 0626 T02221072
KMLF 070638Z AUTO 19013KT 10SM CLR 22/M07 A3000 RMK AO2 WSHFT 0624 T02221072
KMLF 070636Z AUTO 19013KT 10SM CLR 22/M07 A3000 RMK AO2 WSHFT 0622 T02221067
KMLF 070627Z AUTO 18012KT 10SM CLR 22/M07 A2999 RMK AO2 WSHFT 0613 T02221067
KMLF 070625Z AUTO 18011KT 10SM CLR 22/M07 A2999 RMK AO2 WSHFT 0611 T02221067
KMLF 070623Z AUTO 18012KT 10SM CLR 22/M07 A2999 RMK AO2 WSHFT 0609 T02221067
KMLF 070621Z AUTO 18013KT 10SM CLR 22/M06 A3000 RMK AO2 WSHFT 0607 T02221061
KMLF 070612Z AUTO 18012KT 10SM CLR 22/M06 A2999 RMK AO2 WSHFT 0558 T02171056
KMLF 070610Z AUTO 18010KT 10SM CLR 22/M05 A3000 RMK AO2 WSHFT 0556 T02171050
KMLF 070608Z AUTO 18010KT 10SM CLR 22/M05 A3000 RMK AO2 WSHFT 0554 T02171050
KMLF 070606Z AUTO 18010KT 10SM CLR 22/M05 A3000 RMK AO2 WSHFT 0552 T02171050
KMLF 070601Z AUTO 18010KT 10SM CLR 22/M05 A2999 RMK AO2 WSHFT 0543 T02171050
KMLF 070552Z AUTO 18011KT 10SM CLR 22/M06 A2999 RMK AO2 SLP076 T02171056 10356 20189 53010
KMLF 070452Z AUTO 19009KT 10SM CLR 22/M03 A2998 RMK AO2 SLP073 T02221033
KMLF 070352Z AUTO 18005KT 10SM CLR 22/M04 A2997 RMK AO2 WSHFT 0253 SLP072 T02221044
KMLF 070311Z AUTO 21009KT 10SM CLR 27/M07 A2996 RMK AO2 WSHFT 0253 T02671072
KMLF 070306Z AUTO 21010KT 10SM CLR 27/M07 A2996 RMK AO2 WSHFT 0252 T02721072
KMLF 070301Z AUTO 21010KT 10SM CLR 28/M07 A2996 RMK AO2 WSHFT 0243 T02831072
KMLF 070256Z AUTO 21010KT 10SM CLR 28/M07 A2996 RMK AO2 WSHFT 0242 T02831072
KMLF 070254Z AUTO 21010KT 10SM CLR 28/M07 A2996 RMK AO2 WSHFT 0240 T02831072
KMLF 070252Z AUTO 21010KT 10SM CLR 29/M08 A2996 RMK AO2 WSHFT 0238 SLP065 T02891078 53000
KMLF 070242Z AUTO 22012KT 10SM CLR 30/M08 A2996 RMK AO2 WSHFT 0228 T03001078
KMLF 070240Z AUTO 22012KT 10SM CLR 30/M08 A2996 RMK AO2 WSHFT 0226 T03001078
KMLF 070238Z AUTO 21012KT 10SM CLR 31/M07 A2996 RMK AO2 WSHFT 0224 T03061072
KMLF 070236Z AUTO 21012KT 10SM CLR 31/M08 A2996 RMK AO2 WSHFT 0222 T03061078
KMLF 070227Z AUTO 22012KT 10SM CLR 31/M08 A2995 RMK AO2 WSHFT 0213 T03111078
KMLF 070225Z AUTO 22013KT 10SM CLR 31/M07 A2995 RMK AO2 WSHFT 0211 T03111072
KMLF 070223Z AUTO 22013KT 10SM CLR 31/M07 A2995 RMK AO2 WSHFT 0209 T03111072
KMLF 070221Z AUTO 22011KT 10SM CLR 32/M07 A2995 RMK AO2 WSHFT 0207 T03171067
KMLF 070212Z AUTO 22012G23KT 10SM CLR 32/M07 A2995 RMK AO2 WSHFT 0158 T03221072
KMLF 070210Z AUTO 22014G23KT 10SM CLR 32/M07 A2995 RMK AO2 WSHFT 0156 T03221072
KMLF 070208Z AUTO 22016G23KT 10SM CLR 32/M07 A2995 RMK AO2 WSHFT 0154 T03221072
KMLF 070206Z AUTO 23018G23KT 10SM CLR 32/M07 A2995 RMK AO2 WSHFT 0152 T03221072
KMLF 070201Z AUTO 22013G21KT 10SM CLR 32/M07 A2995 RMK AO2 WSHFT 0143 T03221067
KMLF 070156Z AUTO 22016G21KT 10SM CLR 33/M06 A2995 RMK AO2 WSHFT 0142 T03281061
KMLF 070154Z AUTO 23014G23KT 10SM CLR 33/M06 A2995 RMK AO2 WSHFT 0140 T03281061
KMLF 070152Z AUTO 22014G23KT 10SM CLR 33/M06 A2995 RMK AO2 WSHFT 0138 SLP065 T03281061
KMLF 070142Z AUTO 22015G21KT 10SM CLR 33/M06 A2995 RMK AO2 WSHFT 0128 T03281061
KMLF 070140Z AUTO 22017G22KT 10SM CLR 33/M06 A2995 RMK AO2 WSHFT 0126 T03331061
KMLF 070138Z AUTO 23015G22KT 10SM CLR 33/M06 A2995 RMK AO2 WSHFT 0124 T03281056
KMLF 070136Z AUTO 22016G22KT 10SM CLR 33/M05 A2995 RMK AO2 WSHFT 0122 T03331050
KMLF 070127Z AUTO 23013G24KT 10SM CLR 33/M06 A2995 RMK AO2 WSHFT 0113 T03331056
KMLF 070125Z AUTO 22014G24KT 10SM CLR 33/M06 A2995 RMK AO2 WSHFT 0111 T03331056
KMLF 070123Z AUTO 22018G24KT 10SM CLR 33/M06 A2995 RMK AO2 WSHFT 0109 T03331056
KMLF 070121Z AUTO 21017G24KT 10SM CLR 33/M06 A2995 RMK AO2 WSHFT 0107 T03331056
KMLF 070112Z AUTO 24016KT 10SM CLR 34/M06 A2995 RMK AO2 WSHFT 0058 T03391056
KMLF 070110Z AUTO 24018G24KT 10SM CLR 34/M06 A2995 RMK AO2 WSHFT 0056 T03391056
KMLF 070108Z AUTO 22016G24KT 10SM CLR 33/M06 A2994 RMK AO2 WSHFT 0054 T03331056
KMLF 070106Z AUTO 21017KT 10SM CLR 33/M06 A2994 RMK AO2 WSHFT 0052 T03331056
KMLF 070101Z AUTO 21019KT 10SM CLR 34/M06 A2995 RMK AO2 WSHFT 0043 T03391056
KMLF 070056Z AUTO 24018G26KT 10SM CLR 34/M06 A2995 RMK AO2 WSHFT 0042 T03391056
KMLF 070054Z AUTO 22018G26KT 10SM CLR 34/M06 A2995 RMK AO2 WSHFT 0040 T03391056
KMLF 070052Z AUTO 23021G26KT 10SM CLR 34/M05 A2995 RMK AO2 PK WND 21029/0007 WSHFT 0038 SLP067 T03441050
KMLF 070042Z AUTO 22019G28KT 10SM CLR 34/M05 A2994 RMK AO2 PK WND 21029/0007 WSHFT 0028 T03441050
KMLF 070040Z AUTO 21016G28KT 10SM CLR 34/M05 A2994 RMK AO2 PK WND 21029/0007 WSHFT 0026 T03441050
KMLF 070038Z AUTO 22015G28KT 10SM CLR 34/M05 A2995 RMK AO2 PK WND 21029/0007 WSHFT 0024 T03441050
KMLF 070036Z AUTO 22017G28KT 10SM CLR 34/M06 A2995 RMK AO2 PK WND 21029/0007 WSHFT 0022 T03441056
KMLF 070027Z AUTO 23017G26KT 10SM CLR 35/M05 A2995 RMK AO2 PK WND 21029/0007 WSHFT 0013 T03501050
KMLF 070025Z AUTO 23019G27KT 10SM CLR 35/M05 A2995 RMK AO2 PK WND 21029/0007 WSHFT 0011 T03501050
KMLF 070023Z AUTO 23019G27KT 10SM CLR 35/M05 A2995 RMK AO2 PK WND 21029/0007 WSHFT 0009 T03501050
KMLF 070021Z AUTO 23016G27KT 10SM CLR 35/M05 A2995 RMK AO2 PK WND 21029/0007 WSHFT 0007 T03501050
KMLF 070012Z AUTO 22018G29KT 10SM CLR 35/M05 A2996 RMK AO2 PK WND 21029/0007 WSHFT 2358 T03501050
KMLF 070010Z AUTO 23020G29KT 10SM CLR 35/M05 A2996 RMK AO2 PK WND 21029/0007 WSHFT 2356 T03501050
KMLF 070008Z AUTO 22021G29KT 10SM CLR 35/M05 A2995 RMK AO2 PK WND 21029/0007 WSHFT 2354 T03501050
KMLF 070006Z AUTO 23021G28KT 10SM CLR 36/M05 A2996 RMK AO2 PK WND 22028/0005 WSHFT 2352 T03561050
KMLF 070001Z AUTO 23016G28KT 10SM CLR 35/M05 A2995 RMK AO2 PK WND 20027/2354 WSHFT 2343 T03501050
KMLF 062356Z AUTO 22018G28KT 10SM CLR 36/M05 A2996 RMK AO2 PK WND 20027/2354 WSHFT 2342 T03561050
KMLF 062354Z AUTO 20019G28KT 10SM CLR 36/M05 A2996 RMK AO2 PK WND 20027/2354 WSHFT 2340 T03561050
KMLF 062352Z AUTO 22021G28KT 10SM CLR 36/M05 A2996 RMK AO2 PK WND 22035/2317 WSHFT 2338 SLP068 T03561050 10372 20328 56009
KMLF 062342Z AUTO 22016G30KT 10SM CLR 36/M06 A2996 RMK AO2 PK WND 22035/2317 WSHFT 2328 T03561056
KMLF 062340Z AUTO 23016G30KT 10SM CLR 36/M06 A2996 RMK AO2 PK WND 22035/2317 WSHFT 2326 T03561056
KMLF 062338Z AUTO 22024G30KT 10SM CLR 36/M06 A2996 RMK AO2 PK WND 22035/2317 WSHFT 2324 T03561056
KMLF 062336Z AUTO 23018G32KT 10SM CLR 36/M06 A2996 RMK AO2 PK WND 22035/2317 WSHFT 2322 T03561056
KMLF 062327Z AUTO 21020G32KT 10SM CLR 36/M06 A2996 RMK AO2 PK WND 22035/2317 WSHFT 2313 T03561056
KMLF 062325Z AUTO 21020G35KT 10SM CLR 36/M06 A2996 RMK AO2 PK WND 22035/2317 WSHFT 2311 T03561056
KMLF 062323Z AUTO 22022G35KT 10SM CLR 36/M06 A2996 RMK AO2 PK WND 22035/2317 WSHFT 2309 T03561056
KMLF 062321Z AUTO 23019G35KT 10SM CLR 36/M05 A2997 RMK AO2 PK WND 22035/2317 WSHFT 2307 T03561050
KMLF 062312Z AUTO 23017G28KT 10SM CLR 36/M05 A2996 RMK AO2 PK WND 22029/2304 WSHFT 2258 T03561050
KMLF 062310Z AUTO 23019G28KT 10SM CLR 36/M05 A2997 RMK AO2 PK WND 22029/2304 WSHFT 2256 T03561050
KMLF 062308Z AUTO 22018G28KT 10SM CLR 36/M05 A2997 RMK AO2 PK WND 22029/2304 WSHFT 2254 T03561050
KMLF 062306Z AUTO 22019G28KT 10SM CLR 36/M05 A2997 RMK AO2 PK WND 22029/2304 WSHFT 2252 T03561050
KMLF 062301Z AUTO 20021G25KT 10SM CLR 36/M05 A2997 RMK AO2 PK WND 21026/2301 WSHFT 2243 T03611050
KMLF 062256Z AUTO 22015G27KT 10SM CLR 36/M06 A2997 RMK AO2 WSHFT 2242 T03611056
KMLF 062254Z AUTO 21016G27KT 10SM CLR 36/M06 A2997 RMK AO2 WSHFT 2240 T03611056
KMLF 062252Z AUTO 21014G27KT 10SM CLR 36/M06 A2997 RMK AO2 PK WND 20029/2227 WSHFT 2238 SLP073 T03561061
KMLF 062242Z AUTO 20018G26KT 10SM CLR 36/M05 A2997 RMK AO2 PK WND 20029/2227 WSHFT 2228 T03611050
KMLF 062240Z AUTO 22019G26KT 10SM CLR 36/M06 A2997 RMK AO2 PK WND 20029/2227 WSHFT 2226 T03611056
KMLF 062238Z AUTO 19013G26KT 10SM CLR 36/M06 A2997 RMK AO2 PK WND 20029/2227 WSHFT 2224 T03611056
KMLF 062236Z AUTO 21014G29KT 10SM CLR 36/M06 A2997 RMK AO2 PK WND 20029/2227 WSHFT 2222 T03611056
KMLF 062227Z AUTO 21017G29KT 10SM CLR 36/M06 A2997 RMK AO2 PK WND 20029/2227 WSHFT 2213 T03611056
KMLF 062225Z AUTO 21018G26KT 10SM CLR 36/M06 A2998 RMK AO2 PK WND 20026/2222 WSHFT 2211 T03611061
KMLF 062223Z AUTO 20019G26KT 10SM CLR 36/M06 A2998 RMK AO2 PK WND 20026/2222 WSHFT 2209 T03611061
KMLF 062221Z AUTO 20017G25KT 10SM CLR 36/M06 A2997 RMK AO2 PK WND 20026/2201 WSHFT 2207 T03611061
KMLF 062212Z AUTO 21015KT 10SM CLR 36/M06 A2997 RMK AO2 PK WND 20026/2201 WSHFT 2158 T03611056
KMLF 062210Z AUTO 18016G26KT 10SM CLR 36/M06 A2997 RMK AO2 PK WND 20026/2201 WSHFT 2156 T03611056
KMLF 062208Z AUTO 17013G26KT 10SM CLR 36/M06 A2997 RMK AO2 PK WND 20026/2201 WSHFT 2154 T03611056
KMLF 062206Z AUTO 18017G26KT 10SM CLR 36/M06 A2997 RMK AO2 PK WND 20026/2201 WSHFT 2152 T03611056
KMLF 062201Z AUTO 21018G26KT 10SM CLR 37/M05 A2997 RMK AO2 PK WND 20026/2201 WSHFT 2143 T03721050
KMLF 062156Z AUTO 19015G27KT 10SM CLR 36/M06 A2997 RMK AO2 WSHFT 2142 T03611061
KMLF 062154Z AUTO 19018G27KT 10SM CLR 36/M06 A2998 RMK AO2 WSHFT 2140 T03611061
KMLF 062152Z AUTO 19019G28KT 10SM CLR 37/M06 A2998 RMK AO2 PK WND 20028/2143 WSHFT 2138 SLP067 T03671056
KMLF 062142Z AUTO 19021G26KT 10SM CLR 37/M04 A2998 RMK AO2 PK WND 22027/2118 WSHFT 2128 T03671044
KMLF 062140Z AUTO 18015G26KT 150V220 10SM CLR 37/M04 A2998 RMK AO2 PK WND 22027/2118 WSHFT 2126 T03671044
KMLF 062138Z AUTO 21015G26KT 10SM CLR 37/M04 A2998 RMK AO2 PK WND 22027/2118 WSHFT 2124 T03671044
KMLF 062136Z AUTO 19014G26KT 10SM CLR 37/M04 A2998 RMK AO2 PK WND 22027/2118 WSHFT 2122 T03671044
KMLF 062127Z AUTO 23011G27KT 10SM CLR 36/M05 A2998 RMK AO2 PK WND 22027/2118 WSHFT 2113 T03561050
KMLF 062125Z AUTO 23011G27KT 10SM CLR 36/M05 A2998 RMK AO2 PK WND 22027/2118 WSHFT 2111 T03611050
KMLF 062123Z AUTO 21019G27KT 10SM CLR 37/M05 A2999 RMK AO2 PK WND 22027/2118 WSHFT 2109 T03671050
KMLF 062121Z AUTO 21020G27KT 10SM CLR 37/M05 A2998 RMK AO2 PK WND 22027/2118 WSHFT 2107 T03671050
KMLF 062112Z AUTO 19019G24KT 10SM CLR 37/M04 A2998 RMK AO2 WSHFT 2058 T03671044
KMLF 062110Z AUTO 20014G22KT 10SM CLR 37/M05 A2998 RMK AO2 WSHFT 2056 T03671050
KMLF 062108Z AUTO 22014G22KT 10SM CLR 36/M05 A2998 RMK AO2 WSHFT 2054 T03611050
KMLF 062106Z AUTO 22016G22KT 10SM CLR 36/M05 A2999 RMK AO2 WSHFT 2052 T03611050
KMLF 062101Z AUTO 17010G27KT 130V190 10SM CLR 36/M05 A2998 RMK AO2 WSHFT 2043 T03611050
KMLF 062056Z AUTO 18018G27KT 10SM CLR 37/M05 A2999 RMK AO2 WSHFT 2042 T03671050
KMLF 062054Z AUTO 19016G27KT 10SM CLR 36/M05 A2999 RMK AO2 WSHFT 2040 T03611050
KMLF 062052Z AUTO 19019G27KT 10SM CLR 37/M05 A2999 RMK AO2 PK WND 20027/2052 WSHFT 2038 SLP072 T03671050 58020
KMLF 062042Z AUTO 17015G25KT 10SM CLR 37/M04 A2999 RMK AO2 WSHFT 2028 T03671044
KMLF 062040Z AUTO 19019G25KT 10SM CLR 37/M04 A2999 RMK AO2 WSHFT 2026 T03671044
KMLF 062038Z AUTO 21015G22KT 10SM CLR 37/M04 A2999 RMK AO2 WSHFT 2024 T03671044
KMLF 062036Z AUTO 20012G23KT 10SM CLR 37/M05 A2999 RMK AO2 WSHFT 2022 T03671050
KMLF 062027Z AUTO 20018G23KT 10SM CLR 36/M05 A3000 RMK AO2 WSHFT 2013 T03611050
KMLF 062025Z AUTO 19014G23KT 10SM CLR 37/M04 A3000 RMK AO2 WSHFT 2011 T03671044
KMLF 062023Z AUTO 20015G23KT 10SM CLR 37/M04 A3000 RMK AO2 WSHFT 2009 T03671044
KMLF 062021Z AUTO 21016G23KT 10SM CLR 37/M04 A3000 RMK AO2 WSHFT 2007 T03671044
KMLF 061952Z AUTO 21008G16KT 180V240 10SM CLR 35/M03 A3001 RMK AO2 SLP081 T03501033
KMLF 061852Z AUTO 20011G17KT 10SM CLR 34/M03 A3004 RMK AO2 WSHFT 1813 SLP090 T03441033
KMLF 061827Z AUTO 18011KT 10SM CLR 34/M02 A3005 RMK AO2 WSHFT 1813 T03391022
KMLF 061825Z AUTO 15010KT 10SM CLR 34/M02 A3005 RMK AO2 WSHFT 1811 T03391022
KMLF 061823Z AUTO 17010KT 10SM CLR 34/M02 A3005 RMK AO2 WSHFT 1809 T03391022
KMLF 061821Z AUTO 20012G20KT 10SM CLR 34/M03 A3005 RMK AO2 WSHFT 1807 T03391028
KMLF 061812Z AUTO 18014G21KT 10SM CLR 34/M03 A3006 RMK AO2 WSHFT 1758 T03391028
KMLF 061810Z AUTO 19015G21KT 10SM CLR 34/M02 A3006 RMK AO2 WSHFT 1756 T03391022
KMLF 061752Z AUTO 19012G19KT 10SM CLR 33/M02 A3006 RMK AO2 WSHFT 1738 SLP096 T03281022 10333 20139 58004
KMLF 061742Z AUTO 18013KT 10SM CLR 33/M01 A3006 RMK AO2 WSHFT 1728 T03281011
KMLF 061740Z AUTO 18013KT 10SM CLR 33/M01 A3006 RMK AO2 WSHFT 1726 T03281006
KMLF 061738Z AUTO 17010KT 10SM CLR 32/M01 A3006 RMK AO2 WSHFT 1724 T03221006
KMLF 061736Z AUTO 18012KT 10SM CLR 33/M01 A3006 RMK AO2 WSHFT 1722 T03281006
KMLF 061727Z AUTO 18011G17KT 10SM CLR 32/M01 A3006 RMK AO2 WSHFT 1713 T03221011
KMLF 061725Z AUTO 18013G17KT 10SM CLR 32/M01 A3006 RMK AO2 WSHFT 1711 T03221011
KMLF 061723Z AUTO 18011G18KT 10SM CLR 32/M01 A3006 RMK AO2 WSHFT 1709 T03221011
KMLF 061721Z AUTO 17011G20KT 10SM CLR 32/M01 A3006 RMK AO2 WSHFT 1707 T03171011
KMLF 061712Z AUTO 18012KT 10SM CLR 32/M01 A3006 RMK AO2 WSHFT 1658 T03171011
KMLF 061710Z AUTO 19012KT 10SM CLR 32/M02 A3006 RMK AO2 WSHFT 1656 T03171017
KMLF 061708Z AUTO 18011KT 10SM CLR 31/M02 A3007 RMK AO2 WSHFT 1654 T03111017
KMLF 061706Z AUTO 18012KT 10SM CLR 31/M02 A3007 RMK AO2 WSHFT 1652 T03111017
KMLF 061701Z AUTO 17013KT 10SM CLR 31/M02 A3007 RMK AO2 WSHFT 1643 T03111017
KMLF 061656Z AUTO 18012KT 10SM CLR 31/M02 A3007 RMK AO2 WSHFT 1642 T03111017
KMLF 061654Z AUTO 18012KT 10SM CLR 31/M02 A3007 RMK AO2 WSHFT 1640 T03111017
KMLF 061652Z AUTO 19012KT 10SM CLR 31/M02 A3007 RMK AO2 WSHFT 1638 SLP100 T03111017
KMLF 061642Z AUTO 20012KT 10SM CLR 31/M02 A3007 RMK AO2 WSHFT 1628 T03061022
KMLF 061640Z AUTO 19012KT 10SM CLR 31/M02 A3007 RMK AO2 WSHFT 1626 T03061022
KMLF 061638Z AUTO 18012KT 10SM CLR 31/M02 A3007 RMK AO2 WSHFT 1624 T03061022
KMLF 061636Z AUTO 19011KT 10SM CLR 30/M02 A3007 RMK AO2 WSHFT 1622 T03001022
KMLF 061627Z AUTO 19011KT 10SM CLR 30/M01 A3007 RMK AO2 WSHFT 1613 T03001011
KMLF 061625Z AUTO 18011KT 10SM CLR 30/M01 A3007 RMK AO2 WSHFT 1611 T03001011
KMLF 061623Z AUTO 18011KT 10SM CLR 30/M01 A3007 RMK AO2 WSHFT 1609 T03001011
KMLF 061621Z AUTO 19012KT 10SM CLR 29/M01 A3007 RMK AO2 WSHFT 1607 T02941011
KMLF 061612Z AUTO 19012KT 10SM CLR 29/M02 A3007 RMK AO2 WSHFT 1558 T02941017
KMLF 061610Z AUTO 19012KT 10SM CLR 29/M02 A3007 RMK AO2 WSHFT 1556 T02891022
KMLF 061608Z AUTO 19011KT 10SM CLR 29/M03 A3007 RMK AO2 WSHFT 1554 T02891028
KMLF 061606Z AUTO 19014KT 10SM CLR 29/M03 A3007 RMK AO2 WSHFT 1552 T02891028
KMLF 061601Z AUTO 19012KT 10SM CLR 29/M03 A3007 RMK AO2 WSHFT 1543 T02891028
KMLF 061556Z AUTO 19013KT 10SM CLR 29/M03 A3007 RMK AO2 WSHFT 1542 T02891028
KMLF 061554Z AUTO 20011KT 10SM CLR 29/M03 A3007 RMK AO2 WSHFT 1540 T02891028
KMLF 061552Z AUTO 20011KT 10SM CLR 29/M03 A3007 RMK AO2 WSHFT 1538 SLP103 T02891028
KMLF 061542Z AUTO 20011KT 10SM CLR 28/M03 A3008 RMK AO2 WSHFT 1528 T02831028
KMLF 061540Z AUTO 20011KT 10SM CLR 28/M03 A3008 RMK AO2 WSHFT 1526 T02831028
KMLF 061538Z AUTO 20012KT 10SM CLR 28/M03 A3008 RMK AO2 WSHFT 1524 T02831028
KMLF 061536Z AUTO 20014KT 10SM CLR 28/M03 A3008 RMK AO2 WSHFT 1522 T02781028
KMLF 061457Z AUTO 18010KT 10SM CLR 24/01 A3007 RMK AO2 WSHFT 1443 T02390006
KMLF 061455Z AUTO 18010KT 10SM CLR 24/00 A3007 RMK AO2 WSHFT 1441 T02390000
KMLF 061452Z AUTO 19011KT 10SM CLR 24/00 A3007 RMK AO2 SLP105 T02390000 51008
KMLF 061352Z AUTO 19007KT 10SM CLR 18/00 A3007 RMK AO2 SLP107 T01780000
KMLF 061252Z AUTO 00000KT 10SM CLR 16/M04 A3006 RMK AO2 WSHFT 1221 SLP102 T01561039
KMLF 061239Z AUTO 19007KT 10SM CLR 17/M05 A3005 RMK AO2 WSHFT 1221 T01671050
KMLF 061152Z AUTO 16007KT 10SM CLR 15/M04 A3005 RMK AO2 SLP099 T01501039 10239 20122 51006
KMLF 061052Z AUTO 18005KT 10SM CLR 14/M03 A3004 RMK AO2 WSHFT 0954 SLP098 T01441033
KMLF 061008Z AUTO 23010KT 10SM CLR 20/M06 A3003 RMK AO2 WSHFT 0954 T02001056
KMLF 061006Z AUTO 23010KT 10SM CLR 20/M06 A3003 RMK AO2 WSHFT 0952 T02001056
KMLF 060952Z AUTO 23011KT 10SM CLR 21/M06 A3003 RMK AO2 WSHFT 0857 SLP087 T02061056
KMLF 060915Z AUTO 21007KT 10SM CLR 20/M06 A3003 RMK AO2 WSHFT 0857 T02001056
KMLF 060910Z AUTO 22010KT 10SM CLR 20/M06 A3002 RMK AO2 WSHFT 0856 T02001056
KMLF 060908Z AUTO 22010KT 10SM CLR 20/M06 A3002 RMK AO2 WSHFT 0854 T02001056
KMLF 060906Z AUTO 22011KT 10SM CLR 20/M06 A3002 RMK AO2 WSHFT 0852 T02001056
KMLF 060901Z AUTO 23011KT 10SM CLR 20/M06 A3002 RMK AO2 WSHFT 0843 T02001056
KMLF 060856Z AUTO 22010KT 10SM CLR 21/M06 A3002 RMK AO2 WSHFT 0842 T02061056
KMLF 060854Z AUTO 22010KT 10SM CLR 21/M06 A3002 RMK AO2 WSHFT 0840 T02061056
KMLF 060852Z AUTO 22011KT 10SM CLR 20/M06 A3003 RMK AO2 WSHFT 0838 SLP087 T02001056 53003
KMLF 060842Z AUTO 22011KT 10SM CLR 21/M06 A3002 RMK AO2 WSHFT 0828 T02061056
KMLF 060840Z AUTO 22011KT 10SM CLR 21/M06 A3002 RMK AO2 WSHFT 0826 T02061056
KMLF 060838Z AUTO 22011KT 10SM CLR 21/M05 A3002 RMK AO2 WSHFT 0824 T02061050
KMLF 060836Z AUTO 22011KT 10SM CLR 21/M05 A3002 RMK AO2 WSHFT 0822 T02061050
KMLF 060827Z AUTO 21012KT 10SM CLR 22/M05 A3002 RMK AO2 WSHFT 0813 T02171050
KMLF 060825Z AUTO 22012KT 10SM CLR 22/M05 A3002 RMK AO2 WSHFT 0811 T02171050
KMLF 060823Z AUTO 21012KT 10SM CLR 22/M05 A3002 RMK AO2 WSHFT 0809 T02171050
KMLF 060821Z AUTO 21012KT 10SM CLR 22/M05 A3002 RMK AO2 WSHFT 0807 T02171050
KMLF 060812Z AUTO 20011KT 10SM CLR 22/M05 A3002 RMK AO2 WSHFT 0758 T02171050
KMLF 060810Z AUTO 20012KT 10SM CLR 22/M05 A3002 RMK AO2 WSHFT 0756 T02171050
KMLF 060808Z AUTO 20012KT 10SM CLR 22/M05 A3002 RMK AO2 WSHFT 0754 T02221050
KMLF 060806Z AUTO 20012KT 10SM CLR 22/M05 A3002 RMK AO2 WSHFT 0752 T02221050
KMLF 060801Z AUTO 20012KT 10SM CLR 22/M05 A3002 RMK AO2 WSHFT 0743 T02221050
KMLF 060756Z AUTO 20011KT 10SM CLR 22/M05 A3002 RMK AO2 WSHFT 0742 T02221050
KMLF 060754Z AUTO 20012KT 10SM CLR 22/M05 A3002 RMK AO2 WSHFT 0740 T02221050
KMLF 060752Z AUTO 20012KT 10SM CLR 22/M04 A3002 RMK AO2 WSHFT 0738 SLP082 T02171044
KMLF 060742Z AUTO 20011KT 10SM CLR 21/M04 A3002 RMK AO2 WSHFT 0728 T02111044
KMLF 060740Z AUTO 20011KT 10SM CLR 21/M04 A3002 RMK AO2 WSHFT 0726 T02111044
KMLF 060738Z AUTO 20011KT 10SM CLR 21/M04 A3002 RMK AO2 WSHFT 0724 T02111044
KMLF 060736Z AUTO 20012KT 10SM CLR 21/M04 A3002 RMK AO2 WSHFT 0722 T02111044
KMLF 060727Z AUTO 20012KT 10SM CLR 22/M04 A3002 RMK AO2 WSHFT 0713 T02171044
KMLF 060725Z AUTO 20012KT 10SM CLR 22/M04 A3002 RMK AO2 WSHFT 0711 T02171044
KMLF 060723Z AUTO 20012KT 10SM CLR 22/M04 A3002 RMK AO2 WSHFT 0709 T02171044
KMLF 060721Z AUTO 20012KT 10SM CLR 22/M04 A3002 RMK AO2 WSHFT 0707 T02171044
KMLF 060712Z AUTO 19013KT 10SM CLR 22/M04 A3002 RMK AO2 WSHFT 0658 T02221044
KMLF 060710Z AUTO 20012KT 10SM CLR 23/M04 A3002 RMK AO2 WSHFT 0656 T02281044
KMLF 060708Z AUTO 19012KT 10SM CLR 23/M04 A3002 RMK AO2 WSHFT 0654 T02281044
KMLF 060706Z AUTO 19012KT 10SM CLR 23/M04 A3002 RMK AO2 WSHFT 0652 T02281044
KMLF 060701Z AUTO 19012KT 10SM CLR 23/M04 A3002 RMK AO2 WSHFT 0643 T02281044
KMLF 060656Z AUTO 19011KT 10SM CLR 23/M04 A3002 RMK AO2 WSHFT 0642 T02281044
KMLF 060654Z AUTO 19011KT 10SM CLR 23/M04 A3002 RMK AO2 WSHFT 0640 T02281044
KMLF 060652Z AUTO 19012KT 10SM CLR 23/M04 A3002 RMK AO2 WSHFT 0638 SLP083 T02281044 403670100
KMLF 060642Z AUTO 19012KT 10SM CLR 23/M04 A3002 RMK AO2 WSHFT 0628 T02331044
KMLF 060640Z AUTO 19012KT 10SM CLR 23/M04 A3002 RMK AO2 WSHFT 0626 T02331044
KMLF 060638Z AUTO 19012KT 10SM CLR 23/M04 A3002 RMK AO2 WSHFT 0624 T02281044
KMLF 060601Z AUTO 19008KT 10SM CLR 23/M03 A3002 RMK AO2 WSHFT 0543 T02331028
KMLF 060556Z AUTO 19011KT 10SM CLR 24/M03 A3002 RMK AO2 WSHFT 0542 T02391028
KMLF 060554Z AUTO 19012KT 10SM CLR 24/M03 A3002 RMK AO2 WSHFT 0540 T02391028
KMLF 060552Z AUTO 19011KT 10SM CLR 24/M03 A3002 RMK AO2 WSHFT 0538 SLP082 T02391028 10361 20239 51011
KMLF 060542Z AUTO 18011KT 10SM CLR 24/M03 A3001 RMK AO2 WSHFT 0528 T02441033
KMLF 060540Z AUTO 19010KT 10SM CLR 24/M04 A3001 RMK AO2 WSHFT 0526 T02441039
KMLF 060538Z AUTO 19010KT 10SM CLR 25/M03 A3001 RMK AO2 WSHFT 0524 T02501033
KMLF 060536Z AUTO 18011KT 10SM CLR 25/M03 A3001 RMK AO2 WSHFT 0522 T02501033
KMLF 060527Z AUTO 18011KT 10SM CLR 25/M03 A3001 RMK AO2 WSHFT 0513 T02501033
KMLF 060525Z AUTO 18012KT 10SM CLR 25/M03 A3001 RMK AO2 WSHFT 0511 T02501033
KMLF 060523Z AUTO 18012KT 10SM CLR 25/M03 A3001 RMK AO2 WSHFT 0509 T02501033
KMLF 060521Z AUTO 18011KT 9SM CLR 25/M03 A3001 RMK AO2 WSHFT 0507 T02501033
KMLF 060512Z AUTO 18011KT 10SM CLR 26/M03 A3001 RMK AO2 WSHFT 0458 T02561033
KMLF 060510Z AUTO 18011KT 10SM CLR 26/M03 A3001 RMK AO2 WSHFT 0456 T02561033
KMLF 060508Z AUTO 18012KT 10SM CLR 26/M03 A3001 RMK AO2 WSHFT 0454 T02561028
KMLF 060506Z AUTO 18012KT 10SM CLR 26/M03 A3001 RMK AO2 WSHFT 0452 T02561028
KMLF 060501Z AUTO 18011KT 10SM CLR 26/M03 A3001 RMK AO2 WSHFT 0443 T02561028
KMLF 060456Z AUTO 18010KT 10SM CLR 26/M02 A3001 RMK AO2 WSHFT 0442 T02561022
KMLF 060454Z AUTO 18011KT 10SM CLR 26/M02 A3001 RMK AO2 WSHFT 0440 T02561022
KMLF 060452Z AUTO 18011KT 10SM CLR 26/M02 A3001 RMK AO2 WSHFT 0438 SLP079 T02561022
KMLF 060442Z AUTO 18011KT 10SM CLR 26/M02 A3001 RMK AO2 WSHFT 0428 T02561017
KMLF 060440Z AUTO 18011KT 10SM CLR 26/M02 A3001 RMK AO2 WSHFT 0426 T02561017
KMLF 060438Z AUTO 18011KT 10SM CLR 26/M02 A3001 RMK AO2 WSHFT 0424 T02561017
KMLF 060352Z AUTO 19010KT 10SM CLR 26/01 A2999 RMK AO2 SLP077 T02610006
KMLF 060252Z AUTO 19008KT 10SM CLR 29/M02 A2998 RMK AO2 WSHFT 0228 SLP077 T02941017 53000
KMLF 060242Z AUTO 20010KT 10SM CLR 31/M02 A2998 RMK AO2 WSHFT 0228 T03111017
KMLF 060240Z AUTO 20010KT 10SM CLR 31/M02 A2998 RMK AO2 WSHFT 0226 T03111017
KMLF 060238Z AUTO 20010KT 10SM CLR 31/M02 A2998 RMK AO2 WSHFT 0224 T03111017
KMLF 060236Z AUTO 20011KT 10SM CLR 31/M02 A2998 RMK AO2 WSHFT 0222 T03111017
KMLF 060227Z AUTO 21010KT 10SM CLR 32/M01 A2998 RMK AO2 WSHFT 0213 T03171011
KMLF 060225Z AUTO 21010KT 10SM CLR 32/M01 A2997 RMK AO2 WSHFT 0211 T03171011
KMLF 060223Z AUTO 21010KT 10SM CLR 32/M01 A2997 RMK AO2 WSHFT 0209 T03171011
KMLF 060221Z AUTO 21010KT 10SM CLR 32/M01 A2997 RMK AO2 WSHFT 0207 T03171011
KMLF 060212Z AUTO 20011KT 10SM CLR 32/M01 A2997 RMK AO2 WSHFT 0158 T03221011
KMLF 060210Z AUTO 20012KT 10SM CLR 32/M01 A2997 RMK AO2 WSHFT 0156 T03221011
KMLF 060208Z AUTO 20012KT 10SM CLR 32/M01 A2997 RMK AO2 WSHFT 0154 T03221011
KMLF 060206Z AUTO 20013KT 10SM CLR 32/M01 A2997 RMK AO2 WSHFT 0152 T03221011
KMLF 060201Z AUTO 20012KT 10SM CLR 33/00 A2997 RMK AO2 WSHFT 0143 T03280000
KMLF 060156Z AUTO 19013G20KT 10SM CLR 33/M01 A2997 RMK AO2 WSHFT 0142 T03331006
KMLF 060154Z AUTO 20013G20KT 10SM CLR 33/M01 A2997 RMK AO2 WSHFT 0140 T03331006
KMLF 060152Z AUTO 20012G20KT 10SM CLR 33/M01 A2997 RMK AO2 WSHFT 0138 SLP074 T03331006